Time;durP1;ratioP1;P1;durP2;ratioP2;P2;SDS_P1;SDS_P2;PMS_P1;PMS_P2;Temp;Humidity;BMP_temperature;BMP_pressure;BME280_temperature;BME280_humidity;BME280_pressure;Samples;Min_cycle;Max_cycle;Signal;HPM_P1;HPM_P2
2021/06/22 00:01:11;;;;;;;11.40;9.15;;;;;;;16.44;93.40;99925.91;5030300;28;20045;-77
2021/06/22 00:03:36;;;;;;;10.73;9.30;;;;;;;16.50;92.65;99935.78;5040417;28;20120;-77
2021/06/22 00:06:02;;;;;;;10.73;8.70;;;;;;;16.50;93.23;99932.31;5038313;28;20035;-77
2021/06/22 00:08:28;;;;;;;9.93;8.27;;;;;;;16.51;91.32;99942.75;5064444;28;20045;-77
2021/06/22 00:10:53;;;;;;;11.27;8.63;;;;;;;16.51;91.99;99944.59;5034824;28;20037;-77
2021/06/22 00:13:19;;;;;;;14.85;9.77;;;;;;;16.63;89.33;99947.50;5048211;28;20041;-77
2021/06/22 00:15:44;;;;;;;9.48;8.43;;;;;;;16.53;91.19;99946.03;5036060;28;20034;-77
2021/06/22 00:18:10;;;;;;;10.55;8.75;;;;;;;16.52;92.91;99944.41;5042781;28;20583;-77
2021/06/22 00:20:36;;;;;;;10.05;8.35;;;;;;;16.44;91.75;99949.13;5038682;28;20036;-76
2021/06/22 00:23:01;;;;;;;9.60;8.60;;;;;;;16.45;92.16;99945.44;5044679;28;20034;-77
2021/06/22 00:25:27;;;;;;;10.60;8.80;;;;;;;16.44;91.14;99944.59;5035403;28;20029;-77
2021/06/22 00:27:53;;;;;;;9.35;8.13;;;;;;;16.51;91.06;99932.06;5041341;28;20452;-77
2021/06/22 00:30:19;;;;;;;8.93;7.75;;;;;;;16.54;91.20;99931.69;5037304;28;20099;-76
2021/06/22 00:32:45;;;;;;;8.98;8.07;;;;;;;16.55;92.79;99921.84;5048766;28;20044;-77
2021/06/22 00:35:11;;;;;;;8.68;7.78;;;;;;;16.53;92.55;99921.22;5042645;28;20489;-77
2021/06/22 00:37:37;;;;;;;9.18;7.78;;;;;;;16.52;91.76;99920.41;5047103;28;20135;-77
2021/06/22 00:40:04;;;;;;;7.90;7.10;;;;;;;16.54;92.31;99918.34;5038515;28;20061;-77
2021/06/22 00:42:29;;;;;;;7.95;7.15;;;;;;;16.59;91.89;99924.88;5056412;28;20033;-77
2021/06/22 00:44:59;;;;;;;8.35;7.40;;;;;;;16.57;92.26;99927.78;5040009;28;20374;-77
2021/06/22 00:47:27;;;;;;;7.80;7.00;;;;;;;16.53;92.02;99934.56;5046193;28;20021;-77
2021/06/22 00:49:54;;;;;;;7.55;6.85;;;;;;;16.56;92.38;99939.47;5053523;28;20454;-77
2021/06/22 00:52:21;;;;;;;9.57;6.63;;;;;;;16.55;93.25;99937.84;5046561;28;20128;-77
2021/06/22 00:54:47;;;;;;;7.18;6.20;;;;;;;16.53;92.46;99961.25;5048398;28;20033;-76
2021/06/22 00:57:13;;;;;;;7.45;6.60;;;;;;;16.52;93.67;99956.94;5046140;28;20075;-76
2021/06/22 00:59:38;;;;;;;7.40;6.57;;;;;;;16.51;92.09;99958.78;5058095;28;20118;-76
2021/06/22 01:02:05;;;;;;;7.38;6.13;;;;;;;16.50;93.45;99956.31;5040900;28;20120;-77
2021/06/22 01:04:31;;;;;;;6.40;5.70;;;;;;;16.54;92.28;99957.53;5044054;28;20034;-76
2021/06/22 01:06:58;;;;;;;7.10;6.20;;;;;;;16.60;91.49;99959.41;5049169;28;20405;-76
2021/06/22 01:09:25;;;;;;;7.03;6.20;;;;;;;16.56;91.90;99942.16;5041693;28;20557;-77
2021/06/22 01:11:51;;;;;;;6.60;5.75;;;;;;;16.58;89.48;99947.28;5041143;28;20040;-76
2021/06/22 01:14:16;;;;;;;7.07;6.35;;;;;;;16.56;90.85;99952.81;5046394;28;20528;-77
2021/06/22 01:16:42;;;;;;;8.25;6.95;;;;;;;16.56;88.98;99948.31;5040579;28;20033;-77
2021/06/22 01:19:09;;;;;;;6.95;6.25;;;;;;;16.46;92.45;99950.56;5045208;28;21261;-76
2021/06/22 01:21:36;;;;;;;7.63;6.82;;;;;;;16.39;92.72;99947.06;5045036;28;20047;-76
2021/06/22 01:24:04;;;;;;;6.80;6.10;;;;;;;16.34;91.33;99942.34;5043774;28;20025;-76
2021/06/22 01:26:29;;;;;;;6.38;5.40;;;;;;;16.32;92.69;99955.06;5040596;28;20091;-77
2021/06/22 01:28:54;;;;;;;6.95;6.22;;;;;;;16.24;91.33;99949.09;5042779;28;20505;-76
2021/06/22 01:31:20;;;;;;;7.00;6.30;;;;;;;16.16;90.77;99954.63;5042686;28;20037;-76
2021/06/22 01:33:46;;;;;;;5.90;5.30;;;;;;;16.12;92.10;99951.53;5032314;28;20038;-76
2021/06/22 01:36:12;;;;;;;7.18;6.03;;;;;;;16.11;93.24;99965.88;5040827;28;20040;-76
2021/06/22 01:38:38;;;;;;;6.30;5.68;;;;;;;16.11;90.67;99964.06;5059173;28;20033;-76
2021/06/22 01:41:03;;;;;;;6.13;5.25;;;;;;;16.02;92.40;99967.13;5043282;28;20030;-76
2021/06/22 01:43:28;;;;;;;7.13;5.22;;;;;;;16.01;92.31;99971.63;5042236;28;20497;-76
2021/06/22 01:45:54;;;;;;;5.22;4.70;;;;;;;16.00;90.97;99971.84;5046007;28;20041;-76
2021/06/22 01:48:19;;;;;;;5.40;4.45;;;;;;;15.97;92.68;99970.38;5042514;28;20044;-76
2021/06/22 01:50:45;;;;;;;6.00;5.35;;;;;;;15.87;91.51;99968.09;5044839;28;20041;-77
2021/06/22 01:53:10;;;;;;;4.97;4.38;;;;;;;15.78;91.38;99947.97;5031633;28;20033;-76
2021/06/22 01:58:10;;;;;;;4.70;4.20;;;;;;;15.80;91.66;99964.59;5036626;28;20037;-76
2021/06/22 02:00:38;;;;;;;5.50;5.00;;;;;;;15.84;92.15;99970.34;5044773;28;20083;-76
2021/06/22 02:03:04;;;;;;;5.22;4.32;;;;;;;15.84;91.27;99978.34;5037199;28;20040;-76
2021/06/22 02:05:30;;;;;;;4.75;4.32;;;;;;;15.82;92.25;99972.38;5035654;28;20033;-76
2021/06/22 02:07:56;;;;;;;5.40;4.60;;;;;;;15.79;92.81;99976.25;5040145;28;20036;-76
2021/06/22 02:10:21;;;;;;;5.38;4.88;;;;;;;15.68;92.65;99980.31;5046508;28;20452;-76
2021/06/22 02:12:47;;;;;;;6.53;5.15;;;;;;;15.65;91.74;99988.69;5034074;28;20026;-76
2021/06/22 02:15:13;;;;;;;4.88;4.38;;;;;;;15.66;92.62;99993.00;5048256;28;20513;-76
2021/06/22 02:17:38;;;;;;;4.80;4.30;;;;;;;15.76;93.49;99997.19;5042035;28;20576;-76
2021/06/22 02:20:07;;;;;;;5.05;4.55;;;;;;;15.76;93.44;100000.66;5041010;28;20120;-76
2021/06/22 02:22:33;;;;;;;7.18;4.97;;;;;;;15.77;92.92;100012.97;5055654;28;20093;-76
2021/06/22 02:24:59;;;;;;;5.85;4.40;;;;;;;15.78;93.14;100005.78;5054322;28;20409;-76
2021/06/22 02:27:30;;;;;;;4.55;4.05;;;;;;;15.83;93.17;100003.38;5041496;28;20045;-76
2021/06/22 02:29:56;;;;;;;5.32;4.63;;;;;;;15.85;91.23;100009.28;5035293;28;20378;-76
2021/06/22 02:32:22;;;;;;;4.40;4.00;;;;;;;15.92;92.39;100005.66;5044958;28;20052;-76
2021/06/22 02:34:49;;;;;;;5.50;4.43;;;;;;;15.96;91.45;100000.72;5039608;28;20038;-76
2021/06/22 02:37:14;;;;;;;5.20;4.53;;;;;;;15.99;90.17;100012.84;5048957;28;20029;-76
2021/06/22 02:39:39;;;;;;;4.60;4.20;;;;;;;16.06;91.94;100009.16;5044774;28;20544;-76
2021/06/22 02:42:05;;;;;;;6.13;5.00;;;;;;;16.07;90.82;100002.00;5037462;28;20064;-76
2021/06/22 02:44:31;;;;;;;4.90;4.43;;;;;;;16.05;89.77;99996.06;5062844;28;20049;-76
2021/06/22 02:46:56;;;;;;;6.10;4.50;;;;;;;16.04;89.22;99983.72;5038684;28;20041;-76
2021/06/22 02:49:21;;;;;;;5.82;4.10;;;;;;;16.00;88.97;99985.97;5049780;28;20121;-76
2021/06/22 02:51:47;;;;;;;4.45;4.00;;;;;;;15.97;91.52;99986.41;5032830;28;20090;-76
2021/06/22 02:54:12;;;;;;;7.03;4.35;;;;;;;16.02;90.03;99973.28;5045724;28;20207;-76
2021/06/22 02:56:37;;;;;;;5.07;4.57;;;;;;;16.06;89.09;99973.69;5043493;28;20354;-76
2021/06/22 02:59:02;;;;;;;5.88;4.72;;;;;;;16.20;87.47;99974.53;5038160;28;20118;-76
2021/06/22 03:01:28;;;;;;;5.85;4.22;;;;;;;16.16;86.13;99976.81;5044962;28;20477;-76
2021/06/22 03:03:53;;;;;;;4.90;4.38;;;;;;;16.05;87.70;99972.03;5039576;28;20092;-76
2021/06/22 03:06:18;;;;;;;5.75;4.20;;;;;;;15.93;87.88;99967.28;5040385;28;20033;-76
2021/06/22 03:08:44;;;;;;;4.53;4.10;;;;;;;15.91;88.00;99976.50;5041824;28;20041;-76
2021/06/22 03:11:09;;;;;;;5.75;4.22;;;;;;;15.93;87.32;99971.81;5035477;28;20124;-76
2021/06/22 03:13:34;;;;;;;4.40;4.00;;;;;;;15.92;87.23;99979.00;5040712;28;20033;-76
2021/06/22 03:16:00;;;;;;;4.30;3.88;;;;;;;15.88;87.79;99984.91;5032079;28;20042;-76
2021/06/22 03:18:25;;;;;;;6.05;4.72;;;;;;;15.80;88.45;99993.94;5034726;28;20123;-75
2021/06/22 03:20:50;;;;;;;5.55;4.43;;;;;;;15.93;85.19;99999.28;5051970;28;20124;-76
2021/06/22 03:23:16;;;;;;;4.75;4.13;;;;;;;15.86;86.58;99995.78;5047566;28;20057;-76
2021/06/22 03:25:42;;;;;;;4.57;4.15;;;;;;;15.80;88.46;100001.91;5039756;28;20037;-76
2021/06/22 03:28:07;;;;;;;6.15;4.78;;;;;;;15.77;89.03;100002.28;5038115;28;20033;-76
2021/06/22 03:30:32;;;;;;;5.45;4.38;;;;;;;15.77;88.64;99999.63;5034197;28;20520;-76
2021/06/22 03:32:58;;;;;;;4.95;4.05;;;;;;;15.80;89.30;99998.41;5040244;28;20441;-76
2021/06/22 03:35:27;;;;;;;5.10;4.05;;;;;;;15.84;87.80;99995.16;5033100;28;20044;-76
2021/06/22 03:37:52;;;;;;;4.45;3.92;;;;;;;15.80;88.39;99999.25;5049168;28;20029;-76
2021/06/22 03:40:19;;;;;;;4.90;3.53;;;;;;;15.81;87.80;99994.75;5035208;28;20040;-76
2021/06/22 03:42:46;;;;;;;5.95;3.90;;;;;;;15.84;87.62;99989.81;5040158;28;20029;-76
2021/06/22 03:45:12;;;;;;;4.95;3.70;;;;;;;15.86;87.26;100003.78;5039673;28;20406;-76
2021/06/22 03:47:38;;;;;;;5.00;3.90;;;;;;;15.77;88.10;99998.81;5036273;28;20561;-76
2021/06/22 03:50:05;;;;;;;5.40;4.30;;;;;;;15.78;88.04;100006.63;5036974;28;20090;-76
2021/06/22 03:52:30;;;;;;;5.60;4.15;;;;;;;15.79;86.96;100010.91;5032212;28;20467;-76
2021/06/22 03:54:56;;;;;;;4.25;3.47;;;;;;;15.76;87.22;100003.31;5030128;28;20037;-76
2021/06/22 03:57:22;;;;;;;5.53;4.05;;;;;;;15.73;88.81;100006.41;5043575;28;20119;-76
2021/06/22 03:59:48;;;;;;;4.18;3.78;;;;;;;15.79;86.71;100008.25;5036877;28;20078;-76
2021/06/22 04:02:13;;;;;;;4.80;4.00;;;;;;;15.81;87.08;100022.22;5038332;28;20456;-76
2021/06/22 04:04:38;;;;;;;3.38;2.90;;;;;;;15.80;88.95;100015.25;5040954;28;20571;-76
2021/06/22 04:07:04;;;;;;;3.45;3.15;;;;;;;15.81;87.08;100000.06;5050683;28;20106;-76
2021/06/22 04:09:29;;;;;;;3.63;3.10;;;;;;;15.78;87.88;100008.44;5056225;28;20045;-75
2021/06/22 04:11:56;;;;;;;3.60;3.08;;;;;;;15.81;86.56;99990.22;5044662;28;20108;-76
2021/06/22 04:14:22;;;;;;;3.25;2.95;;;;;;;15.77;87.68;99980.16;5032048;28;20111;-76
2021/06/22 04:16:47;;;;;;;3.83;2.80;;;;;;;15.72;88.16;99988.75;5034582;28;20034;-76
2021/06/22 04:19:12;;;;;;;3.13;2.50;;;;;;;15.71;87.95;99992.44;5046398;28;20421;-76
2021/06/22 04:21:39;;;;;;;2.70;2.42;;;;;;;15.74;87.57;99999.22;5036371;28;20472;-76
2021/06/22 04:24:04;;;;;;;3.90;2.80;;;;;;;15.78;86.70;99995.97;5031672;28;20037;-75
2021/06/22 04:26:30;;;;;;;3.90;2.95;;;;;;;15.77;86.61;99999.63;5043508;28;20036;-76
2021/06/22 04:28:55;;;;;;;3.15;2.85;;;;;;;15.80;87.84;100009.91;5037755;28;20037;-75
2021/06/22 04:31:20;;;;;;;2.88;2.47;;;;;;;15.87;87.15;100010.78;5057138;28;20411;-75
2021/06/22 04:33:46;;;;;;;4.25;2.90;;;;;;;15.88;86.50;100020.41;5039001;28;20033;-75
2021/06/22 04:36:12;;;;;;;3.22;2.60;;;;;;;15.88;85.84;100023.06;5040334;28;20608;-76
2021/06/22 04:38:37;;;;;;;3.78;2.90;;;;;;;15.90;84.95;100017.53;5043036;28;20079;-76
2021/06/22 04:41:03;;;;;;;4.18;2.80;;;;;;;15.84;85.27;100016.47;5040498;28;20073;-76
2021/06/22 04:43:28;;;;;;;3.20;2.40;;;;;;;15.79;86.84;100013.59;5035152;28;20036;-75
2021/06/22 04:45:53;;;;;;;3.03;2.65;;;;;;;15.81;86.63;100008.88;5041277;28;20120;-76
2021/06/22 04:48:19;;;;;;;4.88;3.05;;;;;;;15.77;85.33;100015.63;5029943;28;20083;-75
2021/06/22 04:50:44;;;;;;;5.32;2.88;;;;;;;15.73;86.08;100021.53;5035951;28;20045;-75
2021/06/22 04:53:09;;;;;;;2.88;2.30;;;;;;;15.78;86.40;100040.44;5031448;28;20036;-75
2021/06/22 04:55:35;;;;;;;3.63;2.75;;;;;;;15.80;86.94;100036.56;5038868;28;20540;-75
2021/06/22 04:58:00;;;;;;;3.47;2.58;;;;;;;15.92;85.25;100032.31;5035767;28;20453;-75
2021/06/22 05:00:28;;;;;;;4.05;2.17;;;;;;;15.99;87.15;100031.50;5031651;28;20173;-75
2021/06/22 05:02:53;;;;;;;3.40;2.70;;;;;;;16.07;85.88;100026.81;5044515;28;20048;-75
2021/06/22 05:05:19;;;;;;;4.15;2.33;;;;;;;16.06;85.99;100029.69;5038102;28;20489;-75
2021/06/22 05:07:44;;;;;;;3.78;2.40;;;;;;;16.10;84.95;100030.94;5034444;28;20037;-75
2021/06/22 05:10:11;;;;;;;3.75;2.80;;;;;;;16.06;85.93;100024.34;5035365;28;20038;-75
2021/06/22 05:12:36;;;;;;;2.70;2.20;;;;;;;16.12;84.72;100036.91;5044122;28;20037;-75
2021/06/22 05:15:03;;;;;;;2.78;2.47;;;;;;;16.12;83.61;100037.72;5061887;28;20067;-75
2021/06/22 05:17:28;;;;;;;2.80;2.50;;;;;;;16.10;83.83;100047.75;5045234;28;20170;-75
2021/06/22 05:19:54;;;;;;;2.72;2.28;;;;;;;16.13;84.68;100051.88;5059716;28;20049;-75
2021/06/22 05:22:19;;;;;;;2.20;1.88;;;;;;;16.21;84.53;100050.88;5041789;28;20096;-75
2021/06/22 05:24:45;;;;;;;2.85;2.30;;;;;;;16.21;85.93;100049.03;5043937;28;20029;-75
2021/06/22 05:27:12;;;;;;;2.42;1.77;;;;;;;16.27;85.97;100048.22;5060952;28;20029;-75
2021/06/22 05:29:38;;;;;;;2.80;1.77;;;;;;;16.38;84.15;100054.03;5040885;28;20055;-75
2021/06/22 05:32:03;;;;;;;2.25;1.90;;;;;;;16.34;83.76;100046.41;5035052;28;20033;-75
2021/06/22 05:34:31;;;;;;;2.22;1.90;;;;;;;16.40;83.57;100046.59;5036254;28;20033;-75
2021/06/22 05:36:56;;;;;;;2.10;1.80;;;;;;;16.40;86.02;100042.13;5044460;28;20045;-75
2021/06/22 05:39:21;;;;;;;2.50;2.00;;;;;;;16.38;82.28;100046.00;5042274;28;20037;-74
2021/06/22 05:41:46;;;;;;;2.55;2.00;;;;;;;16.31;84.01;100062.81;5039912;28;20117;-75
2021/06/22 05:44:12;;;;;;;2.42;1.75;;;;;;;16.38;83.46;100070.84;5047059;28;20086;-75
2021/06/22 05:46:37;;;;;;;2.47;1.90;;;;;;;16.50;83.49;100063.91;5055281;28;20029;-75
2021/06/22 05:49:02;;;;;;;2.35;1.83;;;;;;;16.63;83.44;100063.09;5056103;28;20034;-74
2021/06/22 05:51:28;;;;;;;2.20;1.90;;;;;;;16.85;82.39;100066.47;5050327;28;20124;-75
2021/06/22 05:53:53;;;;;;;2.00;1.70;;;;;;;16.96;82.42;100055.16;5039354;28;20037;-74
2021/06/22 05:56:18;;;;;;;4.10;2.40;;;;;;;16.91;82.39;100048.78;5057319;28;20033;-74
2021/06/22 05:58:44;;;;;;;2.92;1.88;;;;;;;17.06;82.07;100052.06;5038052;28;20070;-75
2021/06/22 06:01:09;;;;;;;3.92;2.13;;;;;;;17.41;80.46;100059.84;5035158;28;20149;-74
2021/06/22 06:03:35;;;;;;;3.00;1.90;;;;;;;17.56;80.43;100060.44;5038046;28;20041;-74
2021/06/22 06:06:01;;;;;;;2.50;2.00;;;;;;;17.52;81.89;100067.25;5041724;28;20325;-75
2021/06/22 06:08:26;;;;;;;2.40;1.80;;;;;;;17.52;81.94;100064.56;5030694;28;20049;-75
2021/06/22 06:10:52;;;;;;;2.35;2.00;;;;;;;17.47;79.93;100068.88;5054721;28;20044;-75
2021/06/22 06:13:17;;;;;;;2.53;1.70;;;;;;;17.53;81.42;100068.88;5041428;28;20037;-74
2021/06/22 06:15:42;;;;;;;2.50;2.15;;;;;;;17.47;79.66;100072.41;5045275;28;20033;-74
2021/06/22 06:18:08;;;;;;;2.70;2.42;;;;;;;17.55;81.68;100076.69;5041224;28;20037;-74
2021/06/22 06:20:33;;;;;;;2.65;2.13;;;;;;;17.65;80.80;100079.75;5032470;28;20033;-75
2021/06/22 06:22:59;;;;;;;2.97;2.10;;;;;;;17.63;82.18;100090.66;5034321;28;20025;-74
2021/06/22 06:25:24;;;;;;;2.58;1.90;;;;;;;17.69;80.07;100089.00;5050012;28;20037;-74
2021/06/22 06:27:56;;;;;;;2.10;1.67;;;;;;;17.71;79.33;100086.94;5033464;28;20036;-74
2021/06/22 06:30:30;;;;;;;1.90;1.70;;;;;;;17.81;78.86;100092.72;5041387;28;20036;-75
2021/06/22 06:32:56;;;;;;;2.58;2.00;;;;;;;17.93;78.71;100095.56;5046493;28;20076;-76
2021/06/22 06:35:22;;;;;;;2.20;1.83;;;;;;;18.06;78.41;100100.03;5037562;28;20114;-74
2021/06/22 06:37:48;;;;;;;2.95;2.00;;;;;;;17.99;78.53;100102.72;5045970;28;20040;-74
2021/06/22 06:40:13;;;;;;;2.72;2.00;;;;;;;18.03;78.51;100103.13;5046724;28;20040;-74
2021/06/22 06:42:39;;;;;;;2.33;1.88;;;;;;;18.01;79.76;100102.53;5039557;28;20152;-74
2021/06/22 06:45:08;;;;;;;3.53;2.30;;;;;;;18.07;78.24;100106.19;5046560;28;20052;-74
2021/06/22 06:47:34;;;;;;;2.40;2.13;;;;;;;17.99;78.72;100116.09;5031333;28;20091;-74
2021/06/22 06:49:59;;;;;;;3.80;2.33;;;;;;;17.97;78.24;100109.31;5035781;28;20785;-74
2021/06/22 06:52:24;;;;;;;2.60;2.22;;;;;;;17.90;77.74;100108.50;5039375;28;20063;-74
2021/06/22 06:54:50;;;;;;;2.60;2.10;;;;;;;17.89;76.72;100110.38;5037314;28;20044;-74
2021/06/22 06:57:15;;;;;;;3.03;2.30;;;;;;;17.73;78.93;100110.78;5040889;28;20052;-74
2021/06/22 06:59:40;;;;;;;3.67;2.28;;;;;;;17.74;79.39;100112.44;5030898;28;20030;-74
2021/06/22 07:02:06;;;;;;;2.47;2.20;;;;;;;17.80;78.84;100123.19;5030853;28;20048;-74
2021/06/22 07:04:33;;;;;;;2.20;1.85;;;;;;;17.86;78.15;100123.38;5038303;28;20087;-74
2021/06/22 07:06:59;;;;;;;4.68;2.28;;;;;;;17.87;78.27;100120.47;5029336;28;20121;-74
2021/06/22 07:09:24;;;;;;;3.83;2.53;;;;;;;17.76;78.74;100118.41;5037163;28;20124;-74
2021/06/22 07:11:49;;;;;;;2.42;2.15;;;;;;;17.91;79.11;100119.03;5033956;28;20122;-74
2021/06/22 07:14:14;;;;;;;3.65;2.28;;;;;;;18.01;78.48;100113.22;5043686;28;20033;-74
2021/06/22 07:16:41;;;;;;;2.95;1.98;;;;;;;18.03;76.97;100111.97;5058462;28;20044;-74
2021/06/22 07:19:06;;;;;;;3.17;2.40;;;;;;;18.17;77.05;100122.66;5036852;28;20086;-74
2021/06/22 07:21:32;;;;;;;2.60;2.05;;;;;;;18.27;77.12;100128.38;5034054;28;20033;-74
2021/06/22 07:23:57;;;;;;;2.30;2.00;;;;;;;18.39;77.01;100126.66;5046878;28;20040;-74
2021/06/22 07:26:22;;;;;;;4.25;2.00;;;;;;;18.59;76.67;100125.75;5040117;28;20136;-74
2021/06/22 07:28:48;;;;;;;2.83;2.28;;;;;;;18.75;75.46;100125.25;5033592;28;20504;-74
2021/06/22 07:31:13;;;;;;;2.70;2.13;;;;;;;18.86;75.12;100124.59;5042952;28;20049;-74
2021/06/22 07:33:39;;;;;;;3.72;2.28;;;;;;;18.82;75.20;100130.59;5048454;28;20405;-74
2021/06/22 07:36:08;;;;;;;2.60;1.95;;;;;;;18.89;75.28;100116.13;5036732;28;20498;-74
2021/06/22 07:38:34;;;;;;;2.83;2.20;;;;;;;18.98;76.85;100123.91;5048371;28;20486;-74
2021/06/22 07:40:59;;;;;;;2.40;2.20;;;;;;;18.91;75.62;100123.13;5043232;28;20421;-74
2021/06/22 07:43:24;;;;;;;3.22;2.20;;;;;;;19.01;75.15;100121.59;5036416;28;20033;-74
2021/06/22 07:45:50;;;;;;;3.15;2.45;;;;;;;18.99;74.49;100123.66;5036810;28;20484;-74
2021/06/22 07:48:15;;;;;;;3.00;2.33;;;;;;;18.92;74.39;100122.91;5040542;28;20116;-74
2021/06/22 07:50:41;;;;;;;3.33;2.50;;;;;;;18.86;75.35;100121.91;5042042;28;20068;-73
2021/06/22 07:53:06;;;;;;;3.42;2.58;;;;;;;18.84;74.09;100112.47;5038095;28;20056;-74
2021/06/22 07:55:32;;;;;;;4.18;2.50;;;;;;;18.79;75.38;100121.13;5038069;28;20128;-74
2021/06/22 07:57:57;;;;;;;3.22;2.58;;;;;;;18.75;74.67;100124.44;5037424;28;20041;-74
2021/06/22 08:00:41;;;;;;;2.70;2.20;;;;;;;18.72;75.76;100127.53;5046914;28;20048;-74
2021/06/22 08:03:08;;;;;;;2.97;2.03;;;;;;;18.72;75.57;100128.34;5033557;28;20040;-73
2021/06/22 08:05:34;;;;;;;3.50;2.70;;;;;;;18.71;75.56;100126.72;5044914;28;20112;-74
2021/06/22 08:07:59;;;;;;;2.33;1.90;;;;;;;18.77;77.86;100120.53;5037407;28;20120;-73
2021/06/22 08:10:25;;;;;;;3.03;2.40;;;;;;;18.82;75.53;100126.06;5035160;28;20041;-73
2021/06/22 08:12:50;;;;;;;3.65;2.65;;;;;;;18.82;75.21;100126.06;5033470;28;20063;-73
2021/06/22 08:15:16;;;;;;;3.20;2.85;;;;;;;18.63;75.67;100121.59;5037653;28;20145;-73
2021/06/22 08:17:41;;;;;;;3.10;2.63;;;;;;;18.70;76.77;100122.41;5035401;28;20052;-74
2021/06/22 08:20:09;;;;;;;3.83;2.97;;;;;;;18.59;76.72;100129.25;5047130;28;20083;-74
2021/06/22 08:22:34;;;;;;;3.72;2.85;;;;;;;18.67;75.79;100120.16;5038702;28;20037;-74
2021/06/22 08:25:00;;;;;;;3.90;2.90;;;;;;;18.58;76.41;100129.47;5034362;28;20042;-74
2021/06/22 08:27:25;;;;;;;2.92;2.45;;;;;;;18.49;77.19;100126.22;5037247;28;20473;-74
2021/06/22 08:29:51;;;;;;;3.42;2.95;;;;;;;18.43;78.31;100133.25;5047424;28;20477;-74
2021/06/22 08:32:16;;;;;;;3.55;2.70;;;;;;;18.36;79.27;100127.09;5036518;28;20063;-74
2021/06/22 08:34:41;;;;;;;3.20;2.70;;;;;;;18.38;78.47;100135.75;5037332;28;20520;-74
2021/06/22 08:37:07;;;;;;;3.00;2.50;;;;;;;18.41;79.25;100139.84;5040631;28;20030;-74
2021/06/22 08:39:34;;;;;;;2.72;2.20;;;;;;;18.33;81.13;100140.91;5034182;28;20032;-74
2021/06/22 08:42:02;;;;;;;4.13;3.00;;;;;;;18.25;80.49;100147.31;5033525;28;20029;-74
2021/06/22 08:44:29;;;;;;;3.03;2.65;;;;;;;18.16;80.28;100137.03;5028159;28;20363;-74
2021/06/22 08:46:56;;;;;;;3.00;2.70;;;;;;;18.17;80.08;100134.16;5038049;28;20513;-74
2021/06/22 08:49:22;;;;;;;3.40;2.88;;;;;;;18.13;80.21;100140.16;5050765;28;20382;-74
2021/06/22 08:51:47;;;;;;;2.85;2.58;;;;;;;18.14;81.10;100136.44;5049122;28;20040;-74
2021/06/22 08:54:13;;;;;;;3.33;2.90;;;;;;;18.17;81.39;100149.41;5043263;28;20048;-74
2021/06/22 08:56:38;;;;;;;3.83;3.42;;;;;;;18.16;80.32;100148.59;5044450;28;20029;-74
2021/06/22 08:59:03;;;;;;;3.88;2.92;;;;;;;18.12;81.36;100142.00;5046712;28;20040;-74
2021/06/22 09:01:29;;;;;;;4.63;2.95;;;;;;;18.14;80.67;100147.13;5048253;28;20405;-74
2021/06/22 09:03:54;;;;;;;4.50;3.20;;;;;;;18.02;80.97;100153.16;5048290;28;20029;-74
2021/06/22 09:06:25;;;;;;;4.20;3.42;;;;;;;18.02;83.72;100155.84;5046327;28;20485;-74
2021/06/22 09:08:55;;;;;;;3.50;2.90;;;;;;;18.08;83.09;100164.03;5046175;28;20072;-74
2021/06/22 09:11:21;;;;;;;4.93;3.42;;;;;;;18.12;81.88;100165.28;5042511;28;20495;-74
2021/06/22 09:14:00;;;;;;;4.15;3.08;;;;;;;18.16;82.40;100156.63;5045902;28;20327;-74
2021/06/22 09:16:26;;;;;;;3.67;2.78;;;;;;;18.38;84.17;100154.47;5054142;28;20061;-74
2021/06/22 09:18:52;;;;;;;3.28;2.97;;;;;;;18.53;80.69;100158.75;5045392;28;20072;-74
2021/06/22 09:21:24;;;;;;;4.88;3.08;;;;;;;18.57;79.84;100163.47;5051400;28;20053;-74
2021/06/22 09:23:54;;;;;;;3.70;2.92;;;;;;;18.68;80.21;100159.28;5041986;28;20030;-74
2021/06/22 09:26:26;;;;;;;3.97;2.33;;;;;;;18.92;79.74;100160.41;5044642;28;20045;-74
2021/06/22 09:29:05;;;;;;;3.75;2.70;;;;;;;19.35;78.89;100158.88;5044419;28;20029;-74
2021/06/22 09:31:31;;;;;;;3.75;2.58;;;;;;;19.66;77.11;100169.56;5037616;28;20489;-74
2021/06/22 09:33:58;;;;;;;2.70;2.30;;;;;;;20.01;75.90;100170.91;5049121;28;20040;-74
2021/06/22 09:36:26;;;;;;;3.67;2.58;;;;;;;19.99;73.14;100178.34;5044240;28;20037;-74
2021/06/22 09:38:57;;;;;;;3.55;2.75;;;;;;;19.80;73.72;100170.28;5038520;28;20052;-74
2021/06/22 09:41:27;;;;;;;3.20;2.90;;;;;;;19.64;73.78;100178.84;5041672;28;20421;-74
2021/06/22 09:44:10;;;;;;;3.72;3.00;;;;;;;19.58;74.33;100177.88;5038421;28;20523;-74
2021/06/22 09:46:51;;;;;;;2.78;2.40;;;;;;;19.55;73.56;100181.00;5040823;28;20502;-73
2021/06/22 09:49:18;;;;;;;3.28;2.60;;;;;;;19.59;73.50;100184.06;5047113;28;20033;-74
2021/06/22 09:54:19;;;;;;;3.40;2.60;;;;;;;19.56;74.54;100187.19;5041607;28;20401;-74
2021/06/22 09:56:55;;;;;;;4.07;2.33;;;;;;;19.51;73.83;100194.00;5052908;28;20029;-74
2021/06/22 09:59:22;;;;;;;3.28;2.30;;;;;;;19.58;74.02;100193.16;5046715;28;20120;-74
2021/06/22 10:01:47;;;;;;;2.80;2.13;;;;;;;19.58;74.46;100199.34;5045247;28;20029;-73
2021/06/22 10:04:24;;;;;;;5.55;2.50;;;;;;;19.48;74.04;100204.38;5035272;28;20036;-74
2021/06/22 10:07:00;;;;;;;3.35;2.40;;;;;;;19.64;74.41;100193.09;5041684;28;20445;-73
2021/06/22 10:09:30;;;;;;;2.47;2.22;;;;;;;19.92;73.97;100206.06;5030580;28;20552;-74
2021/06/22 10:12:06;;;;;;;2.83;2.33;;;;;;;20.05;74.85;100204.31;5040477;28;20091;-74
2021/06/22 10:14:41;;;;;;;2.90;2.45;;;;;;;20.11;73.94;100206.09;5033976;28;20092;-74
2021/06/22 10:17:09;;;;;;;2.90;2.45;;;;;;;20.11;74.13;100204.22;5032633;28;20040;-74
2021/06/22 10:19:36;;;;;;;3.50;2.65;;;;;;;20.23;73.22;100207.00;5032380;28;20088;-73
2021/06/22 10:22:05;;;;;;;2.70;2.40;;;;;;;20.25;73.20;100214.84;5026991;28;20029;-75
2021/06/22 10:24:38;;;;;;;4.10;3.00;;;;;;;20.05;73.39;100209.69;5050825;28;20032;-74
2021/06/22 10:27:08;;;;;;;3.15;2.63;;;;;;;19.94;72.93;100216.59;5049397;28;20044;-74
2021/06/22 10:29:34;;;;;;;2.65;2.30;;;;;;;19.98;73.19;100216.97;5055209;28;20032;-74
2021/06/22 10:32:02;;;;;;;2.80;2.38;;;;;;;19.97;73.57;100218.81;5030721;28;20033;-74
2021/06/22 10:34:28;;;;;;;2.60;1.90;;;;;;;19.92;75.24;100214.13;5043113;28;20079;-74
2021/06/22 10:37:14;;;;;;;3.20;2.22;;;;;;;19.83;75.90;100209.25;5043201;28;20048;-73
2021/06/22 10:40:20;;;;;;;3.53;2.85;;;;;;;19.78;74.59;100206.41;5036877;28;20037;-73
2021/06/22 10:42:49;;;;;;;4.30;2.60;;;;;;;19.86;75.30;100201.59;5038269;28;20071;-74
2021/06/22 10:45:15;;;;;;;3.38;3.00;;;;;;;19.84;73.78;100209.03;5042177;28;20042;-74
2021/06/22 10:47:43;;;;;;;2.95;2.30;;;;;;;19.97;74.79;100218.00;5047044;28;20037;-74
2021/06/22 10:50:08;;;;;;;2.78;2.47;;;;;;;19.85;74.33;100220.59;5039880;28;20036;-74
2021/06/22 10:52:43;;;;;;;2.97;2.28;;;;;;;20.02;73.88;100219.00;5038846;28;20397;-74
2021/06/22 10:55:08;;;;;;;2.38;2.00;;;;;;;20.07;73.96;100224.53;5063966;28;20037;-74
2021/06/22 10:58:02;;;;;;;3.03;2.20;;;;;;;20.12;74.31;100226.53;5046099;28;20125;-74
2021/06/22 11:00:51;;;;;;;2.63;1.88;;;;;;;20.22;74.08;100226.03;5049778;28;20280;-74
2021/06/22 11:03:28;;;;;;;3.17;2.45;;;;;;;20.27;73.22;100226.19;5039075;28;20036;-74
2021/06/22 11:06:09;;;;;;;3.05;2.38;;;;;;;20.39;72.96;100232.44;5037151;28;20036;-74
2021/06/22 11:08:38;;;;;;;3.40;3.03;;;;;;;20.47;72.38;100242.88;5031942;28;20044;-74
2021/06/22 11:11:06;;;;;;;3.13;2.50;;;;;;;20.49;71.38;100245.34;5032972;28;20060;-74
2021/06/22 11:13:46;;;;;;;3.20;2.17;;;;;;;20.52;72.75;100240.38;5043388;28;20223;-74
2021/06/22 11:16:14;;;;;;;4.30;2.80;;;;;;;20.31;73.31;100241.63;5030611;28;20030;-75
2021/06/22 11:21:21;;;;;;;2.80;1.90;;;;;;;20.20;73.32;100246.91;5036766;28;20060;-74
2021/06/22 11:24:10;;;;;;;3.47;2.63;;;;;;;19.93;74.09;100229.19;5030661;28;20029;-75
2021/06/22 11:26:39;;;;;;;3.72;2.30;;;;;;;19.68;76.46;100225.69;5045231;28;20516;-74
2021/06/22 11:29:04;;;;;;;4.43;3.58;;;;;;;19.46;76.44;100222.53;5039770;28;20048;-75
2021/06/22 11:31:39;;;;;;;5.43;4.20;;;;;;;19.24;77.45;100227.44;5038090;28;20398;-74
2021/06/22 11:34:08;;;;;;;3.20;2.78;;;;;;;19.04;79.50;100224.84;5040041;28;20056;-75